createdAt,value
2023-02-15T00:01:04.193Z,38.49
2023-02-15T00:05:03.914Z,38.62
2023-02-15T00:08:11.771Z,38.37
2023-02-15T00:11:23.567Z,38.39
2023-02-15T00:14:41.972Z,38.27
2023-02-15T00:18:02.755Z,38.22
2023-02-15T00:21:03.549Z,37.98
2023-02-15T00:24:10.641Z,37.77
2023-02-15T00:27:20.120Z,37.76
2023-02-15T00:34:35.020Z,37.67
2023-02-15T00:37:52.168Z,37.66
2023-02-15T00:44:23.497Z,37.51
2023-02-15T00:47:22.246Z,37.38
2023-02-15T00:50:24.043Z,37.30
2023-02-15T00:53:35.211Z,37.18
2023-02-15T00:56:39.920Z,37.13
2023-02-15T00:59:52.680Z,37.17
2023-02-15T01:06:35.850Z,37.15
2023-02-15T01:13:12.841Z,37.03
2023-02-15T01:16:24.676Z,36.94
2023-02-15T01:23:15.378Z,37.03
2023-02-15T01:26:56.080Z,37.35
2023-02-15T01:30:04.083Z,37.04
2023-02-15T01:33:13.948Z,36.96
2023-02-15T01:36:51.271Z,37.20
2023-02-15T01:40:02.482Z,37.10
2023-02-15T01:43:10.433Z,36.96
2023-02-15T01:46:30.866Z,37.03
2023-02-15T01:49:44.804Z,36.97
2023-02-15T01:52:55.642Z,36.98
2023-02-15T01:56:19.892Z,36.96
2023-02-15T01:59:34.358Z,37.01
2023-02-15T02:02:43.847Z,38.21
2023-02-15T02:06:19.690Z,37.60
2023-02-15T02:09:39.985Z,37.25
2023-02-15T02:12:48.569Z,37.10
2023-02-15T02:16:04.337Z,37.14
2023-02-15T02:19:42.421Z,37.36
2023-02-15T02:23:36.116Z,37.50
2023-02-15T02:27:23.551Z,38.75
2023-02-15T02:30:50.521Z,38.92
2023-02-15T02:34:19.818Z,39.01
2023-02-15T02:38:16.824Z,37.96
2023-02-15T02:41:35.533Z,39.66
2023-02-15T02:44:48.177Z,37.88
2023-02-15T02:48:10.447Z,37.53
2023-02-15T02:51:19.678Z,37.34
2023-02-15T02:54:51.985Z,37.51
2023-02-15T02:58:11.724Z,37.36
2023-02-15T03:01:39.660Z,37.50
2023-02-15T03:04:52.571Z,37.34
2023-02-15T03:08:32.010Z,37.49
2023-02-15T03:12:03.898Z,37.46
2023-02-15T03:15:19.571Z,37.38
2023-02-15T03:18:30.935Z,37.38
2023-02-15T03:22:02.818Z,37.30
2023-02-15T03:25:30.283Z,37.43
2023-02-15T03:29:00.488Z,38.57
2023-02-15T03:32:05.137Z,37.84
2023-02-15T03:35:11.897Z,37.43
2023-02-15T03:44:03.480Z,37.79
2023-02-15T03:47:55.964Z,37.62
2023-02-15T03:51:38.083Z,37.54
2023-02-15T03:54:52.728Z,37.60
2023-02-15T03:58:16.742Z,37.47
2023-02-15T04:01:52.493Z,37.55
2023-02-15T04:05:12.341Z,37.52
2023-02-15T04:08:19.189Z,37.37
2023-02-15T04:11:24.484Z,37.40
2023-02-15T04:14:48.328Z,37.34
2023-02-15T04:17:56.566Z,37.41
2023-02-15T04:21:23.588Z,37.32
2023-02-15T04:25:11.223Z,37.39
2023-02-15T04:28:19.914Z,37.42
2023-02-15T04:31:30.832Z,37.33
2023-02-15T04:34:40.816Z,37.33
2023-02-15T04:37:52.075Z,37.37
2023-02-15T04:41:14.337Z,37.45
2023-02-15T04:44:22.496Z,37.40
2023-02-15T04:55:20.306Z,37.48
2023-02-15T04:58:34.297Z,37.30
2023-02-15T05:01:51.953Z,37.35
2023-02-15T05:04:51.789Z,37.26
2023-02-15T05:12:20.670Z,37.43
2023-02-15T05:16:16.808Z,37.64
2023-02-15T05:19:40.377Z,37.43
2023-02-15T05:22:51.903Z,37.71
2023-02-15T05:26:14.358Z,37.25
2023-02-15T05:29:48.117Z,37.66
2023-02-15T05:32:55.745Z,37.51
2023-02-15T05:36:12.514Z,38.87
2023-02-15T05:39:16.462Z,37.85
2023-02-15T05:42:19.740Z,38.06
2023-02-15T05:45:32.712Z,37.82
2023-02-15T05:49:08.354Z,37.69
2023-02-15T05:52:24.646Z,37.56
2023-02-15T05:55:25.105Z,37.51
2023-02-15T05:58:34.984Z,37.48
2023-02-15T06:01:39.789Z,37.48
2023-02-15T06:04:44.340Z,37.70
2023-02-15T06:07:52.446Z,37.57
2023-02-15T06:11:24.306Z,37.94
2023-02-15T06:14:30.801Z,38.16
2023-02-15T06:17:39.473Z,37.65
2023-02-15T06:21:11.757Z,37.64
2023-02-15T06:24:23.454Z,37.61
2023-02-15T06:27:36.104Z,37.60
2023-02-15T06:30:42.727Z,37.44
2023-02-15T06:34:16.233Z,37.52
2023-02-15T06:37:12.260Z,37.97
2023-02-15T06:40:20.080Z,37.83
2023-02-15T06:43:34.917Z,37.61
2023-02-15T06:46:40.177Z,37.60
2023-02-15T06:49:40.569Z,37.60
2023-02-15T06:52:39.680Z,37.63
2023-02-15T06:55:44.807Z,37.57
2023-02-15T06:59:00.136Z,38.03
2023-02-15T07:02:08.563Z,37.81
2023-02-15T07:05:24.808Z,37.92
2023-02-15T07:08:34.497Z,38.74
2023-02-15T07:12:00.705Z,37.99
2023-02-15T07:15:09.045Z,38.17
2023-02-15T07:18:19.901Z,38.20
2023-02-15T07:21:23.679Z,38.14
2023-02-15T07:24:32.052Z,38.23
2023-02-15T07:27:40.225Z,38.29
2023-02-15T07:31:12.337Z,38.62
2023-02-15T07:34:24.306Z,38.58
2023-02-15T07:37:34.194Z,38.15
2023-02-15T07:40:40.224Z,38.16
2023-02-15T07:43:54.455Z,37.82
2023-02-15T07:47:03.287Z,37.77
2023-02-15T07:50:34.644Z,37.97
2023-02-15T07:53:39.889Z,37.85
2023-02-15T07:57:26.729Z,38.06
2023-02-15T08:00:16.153Z,37.97
2023-02-15T08:03:27.128Z,37.82
2023-02-15T08:06:40.181Z,37.81
2023-02-15T08:14:17.104Z,38.29
2023-02-15T08:21:52.750Z,38.32
2023-02-15T08:25:22.262Z,38.17
2023-02-15T08:28:26.767Z,37.91
2023-02-15T08:31:40.561Z,37.98
2023-02-15T08:34:52.059Z,37.93
2023-02-15T08:38:03.848Z,38.55
2023-02-15T08:41:16.038Z,38.62
2023-02-15T08:44:24.566Z,38.76
2023-02-15T08:47:38.149Z,39.79
2023-02-15T08:51:04.601Z,38.88
2023-02-15T08:54:04.148Z,38.15
2023-02-15T08:57:10.880Z,38.63
2023-02-15T09:00:20.721Z,38.81
2023-02-15T09:03:31.354Z,38.43
2023-02-15T09:06:36.741Z,38.53
2023-02-15T09:09:40.063Z,38.44
2023-02-15T09:12:48.154Z,38.41
2023-02-15T09:15:52.118Z,38.37
2023-02-15T09:19:07.213Z,38.73
2023-02-15T09:22:11.967Z,38.63
2023-02-15T09:25:23.563Z,38.45
2023-02-15T09:28:30.945Z,38.10
2023-02-15T09:31:44.456Z,38.08
2023-02-15T09:34:59.820Z,37.98
2023-02-15T09:38:03.984Z,37.72
2023-02-15T09:41:35.993Z,37.71
2023-02-15T09:45:00.575Z,37.69
2023-02-15T09:48:39.803Z,37.90
2023-02-15T09:52:11.796Z,37.94
2023-02-15T09:55:30.391Z,37.87
2023-02-15T09:58:42.637Z,37.92
2023-02-15T10:02:24.071Z,37.97
2023-02-15T10:06:05.118Z,38.19
2023-02-15T10:09:52.059Z,38.25
2023-02-15T10:13:52.086Z,38.21
2023-02-15T10:17:22.658Z,38.19
2023-02-15T10:20:53.241Z,37.98
2023-02-15T10:24:11.779Z,37.89
2023-02-15T10:27:28.657Z,37.72
2023-02-15T10:31:03.859Z,37.82
2023-02-15T10:34:19.852Z,37.67
2023-02-15T10:37:31.957Z,37.54
2023-02-15T10:41:16.607Z,37.74
2023-02-15T10:44:44.333Z,37.70
2023-02-15T10:48:09.186Z,37.80
2023-02-15T10:51:24.369Z,37.63
2023-02-15T10:54:43.817Z,37.60
2023-02-15T10:58:19.679Z,37.85
2023-02-15T11:01:28.559Z,37.65
2023-02-15T11:05:04.009Z,37.82
2023-02-15T11:08:18.083Z,37.69
2023-02-15T11:11:40.289Z,37.74
2023-02-15T11:15:09.063Z,37.75
2023-02-15T11:18:36.611Z,37.74
2023-02-15T11:22:12.297Z,37.88
2023-02-15T11:25:48.428Z,37.91
2023-02-15T11:28:56.751Z,37.84
2023-02-15T11:32:11.981Z,37.69
2023-02-15T11:35:51.981Z,38.02
2023-02-15T11:39:41.194Z,38.19
2023-02-15T11:42:48.971Z,38.29
2023-02-15T11:45:52.194Z,38.19
2023-02-15T11:49:04.061Z,38.08
2023-02-15T11:52:12.095Z,38.06
2023-02-15T11:55:44.042Z,38.08
2023-02-15T11:59:19.772Z,38.36
2023-02-15T12:02:40.337Z,38.34
2023-02-15T12:06:12.224Z,38.23
2023-02-15T12:09:17.275Z,38.19
2023-02-15T12:12:52.247Z,38.41
2023-02-15T12:16:04.333Z,38.34
2023-02-15T12:19:19.180Z,38.14
2023-02-15T12:22:56.961Z,38.46
2023-02-15T12:26:40.895Z,38.47
2023-02-15T12:34:40.466Z,38.60
2023-02-15T12:38:00.722Z,38.53
2023-02-15T12:41:41.187Z,38.59
2023-02-15T12:45:37.077Z,38.69
2023-02-15T12:48:52.899Z,38.59
2023-02-15T12:52:08.814Z,38.57
2023-02-15T12:55:47.322Z,38.15
2023-02-15T12:58:56.789Z,38.01
2023-02-15T13:02:06.373Z,37.98
2023-02-15T13:05:31.805Z,37.99
2023-02-15T13:08:48.552Z,38.07
2023-02-15T13:11:59.538Z,37.95
2023-02-15T13:15:12.703Z,38.04
2023-02-15T13:18:49.403Z,38.22
2023-02-15T13:22:12.109Z,38.25
2023-02-15T13:25:41.302Z,38.31
2023-02-15T13:32:56.757Z,38.71
2023-02-15T13:36:23.048Z,38.47
2023-02-15T13:39:38.895Z,38.36
2023-02-15T13:42:48.824Z,38.51
2023-02-15T13:46:19.694Z,38.68
2023-02-15T13:50:38.392Z,38.82
2023-02-15T13:53:58.380Z,38.98
2023-02-15T13:57:40.777Z,39.19
2023-02-15T14:01:40.495Z,39.43
2023-02-15T14:10:13.291Z,39.70
2023-02-15T14:15:01.282Z,39.93
2023-02-15T14:19:01.325Z,39.93
2023-02-15T14:22:16.916Z,39.82
2023-02-15T14:26:00.340Z,40.31
2023-02-15T14:29:31.953Z,40.32
2023-02-15T14:33:08.580Z,40.26
2023-02-15T14:36:35.903Z,40.68
2023-02-15T14:39:50.788Z,41.44
2023-02-15T14:43:39.404Z,41.75
2023-02-15T14:46:52.966Z,41.15
2023-02-15T14:50:22.854Z,40.92
2023-02-15T14:54:07.718Z,42.07
2023-02-15T14:57:20.137Z,42.24
2023-02-15T15:00:56.922Z,42.57
2023-02-15T15:04:11.826Z,42.44
2023-02-15T15:07:36.853Z,42.63
2023-02-15T15:11:04.436Z,42.72
2023-02-15T15:14:16.415Z,42.04
2023-02-15T15:17:20.933Z,41.35
2023-02-15T15:21:08.614Z,41.53
2023-02-15T15:25:00.208Z,41.84
2023-02-15T15:28:16.184Z,41.78
2023-02-15T15:31:32.036Z,41.88
2023-02-15T15:35:19.647Z,42.21
2023-02-15T15:38:56.159Z,42.40
2023-02-15T15:42:16.755Z,42.42
2023-02-15T15:45:57.158Z,42.69
2023-02-15T15:49:33.709Z,43.06
2023-02-15T15:52:40.525Z,43.49
2023-02-15T15:55:48.433Z,43.64
2023-02-15T15:59:12.170Z,44.06
2023-02-15T16:02:26.994Z,44.13
2023-02-15T16:05:31.711Z,44.04
2023-02-15T16:08:48.616Z,44.02
2023-02-15T16:11:48.534Z,43.86
2023-02-15T16:15:40.047Z,44.01
2023-02-15T16:18:51.548Z,43.63
2023-02-15T16:22:04.182Z,43.42
2023-02-15T16:25:20.434Z,43.68
2023-02-15T16:28:32.216Z,44.21
2023-02-15T16:31:47.314Z,43.55
2023-02-15T16:34:52.712Z,43.47
2023-02-15T16:38:04.178Z,43.34
2023-02-15T16:41:12.965Z,43.49
2023-02-15T16:44:32.991Z,43.59
2023-02-15T16:47:50.868Z,43.80
2023-02-15T16:51:04.766Z,43.89
2023-02-15T16:54:16.023Z,43.98
2023-02-15T16:57:41.361Z,44.67
2023-02-15T17:00:50.606Z,44.69
2023-02-15T17:04:04.108Z,44.17
2023-02-15T17:07:39.227Z,44.41
2023-02-15T17:11:08.890Z,44.58
2023-02-15T17:14:22.603Z,44.41
2023-02-15T17:17:54.720Z,44.62
2023-02-15T17:21:01.396Z,44.93
2023-02-15T17:24:17.153Z,44.88
2023-02-15T17:27:36.515Z,45.25
2023-02-15T17:30:56.302Z,45.47
2023-02-15T17:34:48.177Z,45.32
2023-02-15T17:37:56.538Z,45.33
2023-02-15T17:41:02.821Z,45.21
2023-02-15T17:44:08.409Z,45.09
2023-02-15T17:47:11.092Z,45.11
2023-02-15T17:50:34.827Z,45.18
2023-02-15T17:53:44.432Z,45.25
2023-02-15T17:56:58.242Z,45.35
2023-02-15T18:00:48.569Z,46.41
2023-02-15T18:04:30.925Z,47.24
2023-02-15T18:07:55.313Z,45.87
2023-02-15T18:11:22.888Z,46.01
2023-02-15T18:14:51.010Z,46.42
2023-02-15T18:18:02.790Z,45.83
2023-02-15T18:21:09.394Z,45.79
2023-02-15T18:24:34.622Z,46.21
2023-02-15T18:27:56.766Z,46.26
2023-02-15T18:31:09.511Z,46.26
2023-02-15T18:34:46.630Z,46.56
2023-02-15T18:38:04.082Z,46.83
2023-02-15T18:41:10.730Z,46.55
2023-02-15T18:44:31.906Z,46.55
2023-02-15T18:47:48.017Z,46.46
2023-02-15T18:51:01.657Z,46.39
2023-02-15T18:54:21.424Z,46.37
2023-02-15T18:57:32.706Z,46.35
2023-02-15T19:01:15.418Z,46.69
2023-02-15T19:04:32.384Z,46.69
2023-02-15T19:08:20.512Z,47.52
2023-02-15T19:11:59.006Z,47.12
2023-02-15T19:15:04.438Z,46.94
2023-02-15T19:18:46.852Z,47.08
2023-02-15T19:21:52.302Z,47.04
2023-02-15T19:25:11.700Z,47.11
2023-02-15T19:28:54.625Z,47.03
2023-02-15T19:32:04.986Z,47.31
2023-02-15T19:35:37.155Z,47.17
2023-02-15T19:39:43.034Z,47.85
2023-02-15T19:46:33.645Z,47.28
2023-02-15T19:49:47.279Z,46.92
2023-02-15T19:52:53.460Z,46.80
2023-02-15T19:56:03.013Z,46.67
2023-02-15T19:59:52.605Z,47.18
2023-02-15T20:03:14.808Z,46.96
2023-02-15T20:06:32.369Z,46.82
2023-02-15T20:10:02.350Z,46.74
2023-02-15T20:13:17.457Z,46.86
2023-02-15T20:16:55.997Z,47.11
2023-02-15T20:20:02.879Z,46.98
2023-02-15T20:23:13.044Z,46.81
2023-02-15T20:26:32.351Z,47.16
2023-02-15T20:29:36.765Z,47.90
2023-02-15T20:32:51.445Z,47.71
2023-02-15T20:36:02.735Z,47.25
2023-02-15T20:39:17.464Z,47.10
2023-02-15T20:42:28.452Z,47.02
2023-02-15T20:45:56.173Z,47.80
2023-02-15T20:49:03.881Z,47.38
2023-02-15T20:52:12.676Z,47.50
2023-02-15T20:55:32.557Z,47.79
2023-02-15T20:58:50.636Z,48.07
2023-02-15T21:02:03.098Z,48.07
2023-02-15T21:05:16.585Z,47.95
2023-02-15T21:08:52.881Z,48.15
2023-02-15T21:12:08.480Z,47.85
2023-02-15T21:15:44.929Z,47.69
2023-02-15T21:18:53.104Z,47.37
2023-02-15T21:22:03.857Z,47.76
2023-02-15T21:25:09.176Z,48.02
2023-02-15T21:28:15.987Z,48.33
2023-02-15T21:31:44.217Z,48.20
2023-02-15T21:34:48.101Z,47.93
2023-02-15T21:37:52.446Z,47.57
2023-02-15T21:41:32.536Z,47.46
2023-02-15T21:44:52.428Z,47.39
2023-02-15T21:48:04.551Z,47.71
2023-02-15T21:51:28.654Z,47.62
2023-02-15T21:55:03.114Z,47.80
2023-02-15T21:58:35.529Z,47.77
2023-02-15T22:02:04.068Z,47.67
2023-02-15T22:05:08.019Z,47.43
2023-02-15T22:08:12.494Z,47.21
2023-02-15T22:11:15.828Z,47.17
2023-02-15T22:14:19.705Z,48.61
2023-02-15T22:17:42.895Z,48.52
2023-02-15T22:21:16.344Z,47.89
2023-02-15T22:24:48.282Z,47.60
2023-02-15T22:27:56.234Z,47.50
2023-02-15T22:31:03.166Z,47.46
2023-02-15T22:34:08.072Z,47.28
2023-02-15T22:37:13.438Z,47.41
2023-02-15T22:40:19.901Z,47.28
2023-02-15T22:43:30.664Z,48.93
2023-02-15T22:46:39.949Z,47.63
2023-02-15T22:49:44.011Z,47.57
2023-02-15T22:53:01.490Z,47.59
2023-02-15T22:56:03.704Z,47.29
2023-02-15T22:59:12.175Z,47.05
2023-02-15T23:02:15.965Z,46.78
2023-02-15T23:05:19.914Z,46.83
2023-02-15T23:08:24.045Z,46.53
2023-02-15T23:11:30.604Z,46.57
2023-02-15T23:15:04.548Z,46.75
2023-02-15T23:18:18.814Z,46.52
2023-02-15T23:21:41.561Z,46.75
2023-02-15T23:24:48.470Z,46.49
2023-02-15T23:28:04.543Z,47.66
2023-02-15T23:31:11.213Z,46.68
2023-02-15T23:34:33.110Z,46.21
2023-02-15T23:37:41.102Z,45.93
2023-02-15T23:41:20.751Z,45.97
2023-02-15T23:44:24.258Z,45.97
2023-02-15T23:48:16.053Z,46.34
2023-02-15T23:51:24.741Z,46.24
2023-02-15T23:54:32.017Z,46.09
2023-02-15T23:57:40.663Z,46.49
